Time;durP1;ratioP1;P1;durP2;ratioP2;P2;SDS_P1;SDS_P2;PMS_P1;PMS_P2;Temp;Humidity;BMP_temperature;BMP_pressure;BME280_temperature;BME280_humidity;BME280_pressure;Samples;Min_cycle;Max_cycle;Signal;HPM_P1;HPM_P2
2023/08/09 00:00:28;;;;;;;1.30;1.20;;;14.10;99.90;;;;;;4966254;28;20214;-65
2023/08/09 00:02:56;;;;;;;3.73;1.37;;;14.00;99.90;;;;;;4966344;28;20221;-65
2023/08/09 00:05:26;;;;;;;1.30;1.20;;;14.00;99.90;;;;;;4965851;28;20305;-65
2023/08/09 00:07:53;;;;;;;1.17;1.07;;;14.00;99.90;;;;;;4965518;28;20807;-66
2023/08/09 00:10:21;;;;;;;2.00;1.43;;;14.00;99.90;;;;;;4965747;28;20209;-66
2023/08/09 00:12:48;;;;;;;1.80;1.07;;;14.00;99.90;;;;;;4965886;28;20267;-66
2023/08/09 00:15:15;;;;;;;3.23;1.20;;;14.00;99.90;;;;;;4965273;28;20519;-66
2023/08/09 00:17:42;;;;;;;1.30;1.17;;;13.90;99.90;;;;;;4965450;28;20294;-66
2023/08/09 00:20:12;;;;;;;3.37;1.40;;;13.90;99.90;;;;;;4965549;28;20238;-66
2023/08/09 00:22:39;;;;;;;1.70;1.40;;;13.80;99.90;;;;;;4965381;28;20218;-66
2023/08/09 00:25:10;;;;;;;3.00;1.33;;;13.80;99.90;;;;;;4964864;28;20233;-66
2023/08/09 00:27:37;;;;;;;2.17;1.00;;;13.80;99.90;;;;;;4965735;28;20217;-65
2023/08/09 00:30:05;;;;;;;2.47;0.80;;;13.80;99.90;;;;;;4965384;28;20210;-66
2023/08/09 00:32:33;;;;;;;1.40;1.37;;;13.80;99.90;;;;;;4967732;28;20242;-65
2023/08/09 00:35:00;;;;;;;1.00;1.00;;;13.80;99.90;;;;;;4969226;28;20294;-65
2023/08/09 00:37:28;;;;;;;3.33;1.17;;;13.90;99.90;;;;;;4968887;28;20688;-65
2023/08/09 00:39:55;;;;;;;2.00;1.20;;;13.80;99.90;;;;;;4969332;28;20230;-66
2023/08/09 00:42:23;;;;;;;2.33;1.37;;;13.80;99.90;;;;;;4969268;28;20222;-65
2023/08/09 00:44:50;;;;;;;2.60;1.43;;;13.90;99.90;;;;;;4968978;28;20222;-65
2023/08/09 00:47:17;;;;;;;3.53;1.43;;;13.90;99.90;;;;;;4968559;28;20325;-65
2023/08/09 00:49:45;;;;;;;1.97;1.20;;;13.90;99.90;;;;;;4968391;28;20298;-65
2023/08/09 00:52:12;;;;;;;0.90;0.90;;;13.90;99.90;;;;;;4968600;28;20330;-65
2023/08/09 00:54:41;;;;;;;1.87;1.23;;;13.80;99.90;;;;;;4968600;28;20226;-65
2023/08/09 00:57:08;;;;;;;2.80;1.10;;;13.90;99.90;;;;;;4968282;28;20324;-66
2023/08/09 00:59:36;;;;;;;1.67;1.17;;;13.80;99.90;;;;;;4968310;28;20246;-66
2023/08/09 01:02:02;;;;;;;2.37;1.13;;;13.90;99.90;;;;;;4968476;28;20218;-65
2023/08/09 01:04:29;;;;;;;1.70;1.10;;;13.90;99.90;;;;;;4968892;28;20213;-65
2023/08/09 01:07:13;;;;;;;2.00;1.30;;;13.90;99.90;;;;;;4968653;28;20206;-66
2023/08/09 01:09:49;;;;;;;1.47;1.10;;;13.90;99.90;;;;;;4968788;28;20198;-66
2023/08/09 01:12:21;;;;;;;1.23;1.10;;;13.90;99.90;;;;;;4968677;28;20264;-65
2023/08/09 01:14:55;;;;;;;1.97;1.20;;;13.90;99.90;;;;;;4969113;28;20642;-65
2023/08/09 01:17:23;;;;;;;5.60;1.40;;;14.00;99.90;;;;;;4968468;28;20325;-65
2023/08/09 01:19:53;;;;;;;1.97;1.60;;;14.00;99.90;;;;;;4968227;28;20329;-66
2023/08/09 01:22:24;;;;;;;4.67;1.40;;;13.90;99.90;;;;;;4968361;28;20211;-65
2023/08/09 01:24:53;;;;;;;3.20;1.20;;;13.90;99.90;;;;;;4968326;28;20254;-65
2023/08/09 01:27:20;;;;;;;1.33;1.07;;;13.90;99.90;;;;;;4967966;28;20238;-66
2023/08/09 01:29:47;;;;;;;2.27;1.20;;;13.90;99.90;;;;;;4967818;28;20741;-65
2023/08/09 01:32:14;;;;;;;2.20;1.30;;;13.90;99.90;;;;;;4967266;28;20238;-65
2023/08/09 01:34:41;;;;;;;2.60;1.17;;;13.90;99.90;;;;;;4967799;28;20206;-65
2023/08/09 01:37:15;;;;;;;0.90;0.90;;;13.90;99.90;;;;;;4967933;28;20341;-65
2023/08/09 01:39:43;;;;;;;1.50;1.20;;;13.90;99.90;;;;;;4968275;28;20289;-65
2023/08/09 01:42:13;;;;;;;2.17;1.30;;;13.90;99.90;;;;;;4967505;28;20310;-65
2023/08/09 01:44:41;;;;;;;3.33;1.27;;;14.00;99.90;;;;;;4967373;28;20771;-65
2023/08/09 01:47:08;;;;;;;2.00;1.13;;;13.90;99.90;;;;;;4967688;28;20278;-65
2023/08/09 01:49:37;;;;;;;1.03;1.00;;;14.00;99.90;;;;;;4968105;28;20214;-65
2023/08/09 01:52:04;;;;;;;3.60;1.27;;;14.00;99.90;;;;;;4968163;28;20299;-65
2023/08/09 01:54:31;;;;;;;1.57;1.30;;;14.00;99.90;;;;;;4967392;28;20213;-65
2023/08/09 01:56:58;;;;;;;3.10;1.30;;;14.00;99.90;;;;;;4967824;28;20353;-65
2023/08/09 01:59:26;;;;;;;2.40;1.10;;;14.00;99.90;;;;;;4967696;28;20301;-65
2023/08/09 02:01:54;;;;;;;1.20;1.10;;;14.00;99.90;;;;;;4967585;28;20689;-65
2023/08/09 02:04:21;;;;;;;2.67;1.60;;;14.00;99.90;;;;;;4967653;28;20222;-65
2023/08/09 02:06:48;;;;;;;3.33;1.73;;;14.00;99.90;;;;;;4966785;28;20207;-65
2023/08/09 02:09:15;;;;;;;2.60;1.53;;;14.00;99.90;;;;;;4967070;28;20207;-66
2023/08/09 02:11:42;;;;;;;1.77;1.10;;;14.00;99.90;;;;;;4967458;28;20322;-65
2023/08/09 02:14:09;;;;;;;1.23;1.20;;;14.00;99.90;;;;;;4966961;28;20301;-65
2023/08/09 02:16:37;;;;;;;5.03;1.30;;;14.00;99.90;;;;;;4966568;28;20317;-66
2023/08/09 02:19:04;;;;;;;1.97;1.07;;;14.00;99.90;;;;;;4957362;28;20250;-66
2023/08/09 02:21:31;;;;;;;2.97;1.50;;;14.00;99.90;;;;;;4947656;28;20298;-65
2023/08/09 02:23:58;;;;;;;1.87;1.00;;;14.00;99.90;;;;;;4947908;28;20211;-66
2023/08/09 02:26:26;;;;;;;1.10;1.00;;;14.00;99.90;;;;;;4947944;28;20604;-65
2023/08/09 02:28:53;;;;;;;2.87;1.30;;;14.00;99.90;;;;;;4947239;28;20210;-65
2023/08/09 02:31:20;;;;;;;1.40;1.30;;;14.00;99.90;;;;;;4963530;28;20329;-65
2023/08/09 02:33:48;;;;;;;1.40;1.30;;;14.00;99.90;;;;;;4965862;28;20681;-65
2023/08/09 02:36:14;;;;;;;1.40;1.30;;;13.90;99.90;;;;;;4965661;28;20235;-65
2023/08/09 02:38:41;;;;;;;2.20;1.20;;;13.90;99.90;;;;;;4965504;28;20711;-67
2023/08/09 02:41:08;;;;;;;1.63;1.40;;;13.90;99.90;;;;;;4965775;28;20217;-66
2023/08/09 02:43:35;;;;;;;1.63;1.17;;;13.90;99.90;;;;;;4965108;28;20207;-66
2023/08/09 02:46:04;;;;;;;1.30;1.17;;;13.90;99.90;;;;;;4965736;28;20622;-66
2023/08/09 02:48:31;;;;;;;3.10;1.20;;;14.00;99.90;;;;;;4965441;28;20282;-66
2023/08/09 02:51:01;;;;;;;1.27;1.20;;;14.00;99.90;;;;;;4970658;28;20321;-67
2023/08/09 02:53:33;;;;;;;2.03;1.20;;;14.10;99.90;;;;;;4984314;28;20214;-64
2023/08/09 02:56:00;;;;;;;2.17;1.13;;;14.10;99.90;;;;;;4965679;28;20202;-64
2023/08/09 02:58:28;;;;;;;1.10;1.00;;;14.20;99.90;;;;;;4964713;28;20206;-65
2023/08/09 03:00:54;;;;;;;2.47;1.00;;;14.30;99.90;;;;;;4964789;28;20306;-65
2023/08/09 03:03:21;;;;;;;1.03;1.00;;;14.30;99.90;;;;;;4964673;28;20302;-64
2023/08/09 03:05:49;;;;;;;1.27;1.13;;;14.30;99.90;;;;;;4963272;28;20210;-64
2023/08/09 03:08:18;;;;;;;3.37;1.50;;;14.30;99.90;;;;;;4947306;28;20708;-65
2023/08/09 03:10:44;;;;;;;2.10;1.30;;;14.20;99.90;;;;;;4964319;28;20733;-66
2023/08/09 03:13:11;;;;;;;1.03;1.03;;;14.10;99.90;;;;;;4966348;28;20289;-65
2023/08/09 03:15:39;;;;;;;1.30;1.00;;;14.00;99.90;;;;;;4953384;28;20292;-65
2023/08/09 03:18:06;;;;;;;2.23;1.60;;;14.00;99.90;;;;;;4945863;28;20239;-65
2023/08/09 03:20:34;;;;;;;2.57;1.20;;;14.00;99.90;;;;;;4946760;28;20241;-65
2023/08/09 03:23:03;;;;;;;1.73;1.10;;;13.90;99.90;;;;;;4947255;28;20212;-65
2023/08/09 03:25:31;;;;;;;1.63;1.17;;;13.90;99.90;;;;;;4946852;28;20231;-66
2023/08/09 03:27:58;;;;;;;2.60;1.20;;;14.00;99.90;;;;;;4946567;28;20218;-65
2023/08/09 03:30:25;;;;;;;2.53;1.10;;;13.90;99.90;;;;;;4951118;28;20618;-66
2023/08/09 03:32:52;;;;;;;1.93;1.23;;;13.90;99.90;;;;;;4966012;28;20716;-66
2023/08/09 03:35:19;;;;;;;3.03;1.23;;;13.90;99.90;;;;;;4966173;28;20302;-65
2023/08/09 03:37:46;;;;;;;2.60;1.10;;;13.90;99.90;;;;;;4966018;28;20262;-65
2023/08/09 03:40:13;;;;;;;3.67;1.00;;;14.00;99.90;;;;;;4966288;28;20210;-65
2023/08/09 03:42:42;;;;;;;1.67;1.20;;;14.00;99.90;;;;;;4966606;28;20292;-65
2023/08/09 03:45:10;;;;;;;1.73;1.20;;;14.00;99.90;;;;;;4966377;28;20325;-66
2023/08/09 03:47:37;;;;;;;3.00;1.00;;;14.00;99.90;;;;;;4975077;28;20218;-65
2023/08/09 03:50:05;;;;;;;2.83;1.27;;;14.00;99.90;;;;;;4986088;28;20423;-66
2023/08/09 03:52:32;;;;;;;4.00;1.27;;;13.90;99.90;;;;;;4985764;28;20213;-70
2023/08/09 03:54:59;;;;;;;3.20;1.47;;;13.90;99.90;;;;;;4985174;28;20695;-65
2023/08/09 03:57:27;;;;;;;2.93;1.27;;;13.80;99.90;;;;;;4985692;28;20316;-65
2023/08/09 03:59:55;;;;;;;1.67;1.37;;;13.80;99.90;;;;;;4985225;28;20885;-65
2023/08/09 04:02:22;;;;;;;1.30;1.20;;;13.90;99.90;;;;;;4965883;28;20210;-65
2023/08/09 04:04:49;;;;;;;1.27;1.00;;;13.90;99.90;;;;;;4966369;28;20207;-65
2023/08/09 04:07:16;;;;;;;1.20;1.10;;;13.90;99.90;;;;;;4969448;28;20261;-65
2023/08/09 04:09:43;;;;;;;2.57;1.37;;;13.80;99.90;;;;;;4970126;28;20207;-65
2023/08/09 04:12:10;;;;;;;1.83;1.23;;;13.90;99.90;;;;;;4969879;28;20223;-65
2023/08/09 04:14:37;;;;;;;1.43;1.20;;;13.90;99.90;;;;;;4964817;28;20204;-65
2023/08/09 04:17:06;;;;;;;3.67;1.40;;;13.90;99.90;;;;;;4949965;28;20840;-65
2023/08/09 04:19:33;;;;;;;1.70;1.23;;;13.90;99.90;;;;;;4950426;28;20643;-65
2023/08/09 04:22:00;;;;;;;2.90;1.47;;;13.90;99.90;;;;;;4950543;28;20211;-65
2023/08/09 04:24:27;;;;;;;1.97;1.27;;;13.80;99.90;;;;;;4949742;28;20236;-65
2023/08/09 04:26:54;;;;;;;4.67;1.60;;;13.80;99.90;;;;;;4949991;28;20254;-66
2023/08/09 04:29:21;;;;;;;2.20;1.20;;;13.80;99.90;;;;;;4950179;28;20302;-65
2023/08/09 04:31:48;;;;;;;2.60;1.10;;;13.80;99.90;;;;;;4959375;28;20247;-65
2023/08/09 04:34:17;;;;;;;2.73;1.20;;;13.80;99.90;;;;;;4949798;28;20216;-65
2023/08/09 04:36:44;;;;;;;2.60;1.37;;;13.80;99.90;;;;;;4949960;28;21048;-65
2023/08/09 04:39:12;;;;;;;3.13;1.27;;;13.80;99.90;;;;;;4957540;28;20670;-65
2023/08/09 04:41:38;;;;;;;2.57;1.20;;;13.80;99.90;;;;;;4968475;28;20964;-65
2023/08/09 04:44:06;;;;;;;3.37;1.07;;;13.80;99.90;;;;;;4968760;28;20215;-65
2023/08/09 04:46:33;;;;;;;4.77;1.50;;;13.80;99.90;;;;;;4968802;28;20557;-65
2023/08/09 04:49:00;;;;;;;2.63;1.23;;;13.80;99.90;;;;;;4968605;28;20207;-66
2023/08/09 04:51:28;;;;;;;1.63;1.37;;;13.80;99.90;;;;;;4968742;28;20206;-65
2023/08/09 04:53:55;;;;;;;2.43;1.47;;;13.80;99.90;;;;;;4968743;28;20395;-65
2023/08/09 04:56:22;;;;;;;2.57;1.07;;;13.80;99.90;;;;;;4968919;28;20302;-66
2023/08/09 04:58:49;;;;;;;1.33;1.17;;;13.90;99.90;;;;;;4968451;28;20262;-66
2023/08/09 05:01:16;;;;;;;3.27;2.07;;;13.90;99.90;;;;;;4968316;28;20915;-65
2023/08/09 05:03:43;;;;;;;2.30;1.27;;;13.90;99.90;;;;;;4968692;28;20210;-66
2023/08/09 05:06:10;;;;;;;2.63;1.30;;;13.90;99.90;;;;;;4967440;28;20207;-65
2023/08/09 05:08:38;;;;;;;4.70;1.37;;;13.90;99.90;;;;;;4968135;28;20219;-65
2023/08/09 05:11:05;;;;;;;2.73;1.17;;;13.90;99.90;;;;;;4968107;28;20753;-65
2023/08/09 05:13:32;;;;;;;4.00;0.97;;;13.90;99.90;;;;;;4968065;28;20221;-65
2023/08/09 05:15:59;;;;;;;2.50;1.10;;;13.90;99.90;;;;;;4967620;28;20571;-65
2023/08/09 05:18:26;;;;;;;1.20;0.93;;;13.90;99.90;;;;;;4967126;28;20329;-65
2023/08/09 05:20:53;;;;;;;3.23;0.90;;;13.90;99.90;;;;;;4967906;28;20693;-65
2023/08/09 05:23:20;;;;;;;1.57;1.20;;;13.90;99.90;;;;;;4967743;28;20309;-65
2023/08/09 05:25:48;;;;;;;2.50;1.07;;;13.90;99.90;;;;;;4968232;28;20235;-65
2023/08/09 05:28:15;;;;;;;4.40;1.57;;;13.90;99.90;;;;;;4960709;28;20306;-65
2023/08/09 05:30:42;;;;;;;1.20;1.10;;;13.90;99.90;;;;;;4955908;28;20302;-65
2023/08/09 05:33:09;;;;;;;3.93;1.27;;;14.00;99.90;;;;;;4968040;28;20238;-65
2023/08/09 05:35:36;;;;;;;1.33;1.20;;;14.00;99.90;;;;;;4968648;28;20219;-65
2023/08/09 05:38:03;;;;;;;4.37;1.17;;;14.00;99.90;;;;;;4966932;28;20265;-65
2023/08/09 05:40:30;;;;;;;3.23;1.17;;;14.10;99.90;;;;;;4972520;28;20633;-65
2023/08/09 05:42:58;;;;;;;2.00;1.23;;;14.20;99.90;;;;;;4987751;28;20217;-65
2023/08/09 05:45:25;;;;;;;2.00;1.40;;;14.20;99.90;;;;;;4987516;28;20321;-65
2023/08/09 05:47:52;;;;;;;2.07;1.10;;;14.20;99.90;;;;;;4987261;28;20222;-65
2023/08/09 05:50:19;;;;;;;2.30;1.20;;;14.20;99.90;;;;;;4987333;28;20213;-65
2023/08/09 05:52:46;;;;;;;2.70;1.47;;;14.20;99.90;;;;;;4986506;28;20308;-65
2023/08/09 05:55:12;;;;;;;2.53;1.47;;;14.30;99.90;;;;;;4968757;28;20293;-65
2023/08/09 05:57:39;;;;;;;2.33;1.40;;;14.30;99.90;;;;;;4967198;28;20322;-66
2023/08/09 06:00:15;;;;;;;2.47;1.30;;;14.30;99.90;;;;;;4967466;28;20207;-65
2023/08/09 06:02:42;;;;;;;1.43;1.33;;;14.40;99.90;;;;;;4967523;28;20198;-65
2023/08/09 06:05:13;;;;;;;2.83;1.40;;;14.40;99.90;;;;;;4967686;28;20245;-65
2023/08/09 06:07:41;;;;;;;1.80;1.50;;;14.50;99.90;;;;;;4967474;28;20222;-65
2023/08/09 06:10:08;;;;;;;3.80;1.50;;;14.50;99.90;;;;;;4967635;28;20298;-65
2023/08/09 06:12:35;;;;;;;3.70;1.50;;;14.50;99.90;;;;;;4967706;28;20253;-65
2023/08/09 06:15:02;;;;;;;1.60;1.50;;;14.50;99.90;;;;;;4967743;28;20242;-65
2023/08/09 06:17:30;;;;;;;1.67;1.50;;;14.50;99.90;;;;;;4967145;28;20309;-65
2023/08/09 06:19:58;;;;;;;2.33;1.70;;;14.50;99.90;;;;;;4967439;28;20222;-65
2023/08/09 06:22:25;;;;;;;2.80;1.83;;;14.50;99.90;;;;;;4967054;28;20210;-65
2023/08/09 06:24:52;;;;;;;1.57;1.27;;;14.50;99.90;;;;;;4966802;28;20308;-65
2023/08/09 06:27:19;;;;;;;2.70;1.70;;;14.50;99.90;;;;;;4966766;28;20229;-65
2023/08/09 06:29:46;;;;;;;2.30;1.77;;;14.50;99.90;;;;;;4966048;28;20631;-65
2023/08/09 06:32:13;;;;;;;4.13;1.53;;;14.50;99.90;;;;;;4966304;28;20253;-65
2023/08/09 06:34:41;;;;;;;3.57;1.43;;;14.50;99.90;;;;;;4966940;28;20578;-65
2023/08/09 06:37:08;;;;;;;1.87;1.40;;;14.60;99.90;;;;;;4981532;28;20273;-65
2023/08/09 06:39:35;;;;;;;3.30;1.50;;;14.60;99.90;;;;;;4986112;28;20237;-65
2023/08/09 06:42:02;;;;;;;2.60;1.93;;;14.60;99.90;;;;;;4986696;28;20218;-65
2023/08/09 06:44:29;;;;;;;3.87;1.80;;;14.70;99.90;;;;;;4986774;28;20497;-66
2023/08/09 06:46:56;;;;;;;5.03;2.50;;;14.70;99.90;;;;;;4986555;28;20267;-65
2023/08/09 06:49:23;;;;;;;2.67;1.53;;;14.70;99.90;;;;;;4985604;28;20214;-66
2023/08/09 06:51:51;;;;;;;3.93;1.70;;;14.80;99.90;;;;;;4966944;28;20245;-65
2023/08/09 06:54:18;;;;;;;4.93;1.50;;;14.80;99.90;;;;;;4966770;28;20290;-65
2023/08/09 06:56:45;;;;;;;3.33;1.60;;;14.90;99.90;;;;;;4966342;28;20210;-65
2023/08/09 06:59:12;;;;;;;2.00;1.50;;;14.90;99.90;;;;;;4966192;28;20239;-65
2023/08/09 07:01:39;;;;;;;4.53;1.60;;;15.00;99.90;;;;;;4952428;28;20316;-65
2023/08/09 07:04:06;;;;;;;1.97;1.43;;;15.00;99.90;;;;;;4957608;28;20222;-65
2023/08/09 07:06:34;;;;;;;2.90;1.43;;;15.00;99.90;;;;;;4966346;28;20273;-66
2023/08/09 07:09:02;;;;;;;2.87;1.20;;;15.10;99.90;;;;;;4965993;28;20213;-65
2023/08/09 07:11:29;;;;;;;3.77;1.30;;;15.20;99.90;;;;;;4965835;28;20241;-65
2023/08/09 07:13:56;;;;;;;3.30;1.30;;;15.30;99.90;;;;;;4966234;28;20206;-66
2023/08/09 07:16:23;;;;;;;1.60;1.13;;;15.40;99.90;;;;;;4965581;28;20237;-65
2023/08/09 07:18:50;;;;;;;3.87;1.97;;;15.40;99.90;;;;;;4966287;28;20486;-65
2023/08/09 07:21:17;;;;;;;7.60;1.70;;;15.50;99.90;;;;;;4966392;28;20215;-65
2023/08/09 07:23:44;;;;;;;1.73;1.10;;;15.40;99.90;;;;;;4966536;28;20310;-65
2023/08/09 07:26:12;;;;;;;4.43;1.80;;;15.40;99.90;;;;;;4966450;28;20647;-65
2023/08/09 07:28:39;;;;;;;5.17;1.40;;;15.50;99.90;;;;;;4966663;28;20313;-65
2023/08/09 07:31:17;;;;;;;3.10;1.57;;;15.40;99.90;;;;;;4962304;28;20310;-65
2023/08/09 07:33:44;;;;;;;4.30;1.40;;;15.50;99.90;;;;;;4983726;28;20244;-65
2023/08/09 07:36:11;;;;;;;5.83;1.50;;;15.50;99.90;;;;;;4985681;28;20210;-65
2023/08/09 07:38:38;;;;;;;2.90;1.50;;;15.50;99.90;;;;;;4985115;28;20374;-65
2023/08/09 07:41:05;;;;;;;2.80;1.33;;;15.60;99.90;;;;;;4987525;28;20216;-65
2023/08/09 07:43:34;;;;;;;4.63;1.83;;;15.70;99.90;;;;;;4989506;28;20585;-65
2023/08/09 07:46:03;;;;;;;4.17;1.60;;;15.70;99.90;;;;;;4985346;28;20652;-66
2023/08/09 07:48:30;;;;;;;4.33;1.53;;;15.70;99.90;;;;;;4969576;28;20218;-65
2023/08/09 07:50:57;;;;;;;3.13;1.40;;;15.80;99.90;;;;;;4970310;28;20709;-65
2023/08/09 07:53:24;;;;;;;6.53;1.83;;;15.80;99.90;;;;;;4969408;28;20218;-66
2023/08/09 07:55:51;;;;;;;4.33;1.77;;;15.90;99.90;;;;;;4970037;28;20285;-65
2023/08/09 07:58:18;;;;;;;4.63;1.57;;;16.00;99.90;;;;;;4969337;28;20964;-65
2023/08/09 08:00:47;;;;;;;3.50;1.20;;;16.00;99.90;;;;;;4969721;28;20207;-65
2023/08/09 08:03:13;;;;;;;3.07;1.30;;;16.00;99.90;;;;;;4969564;28;20297;-65
2023/08/09 08:05:40;;;;;;;2.43;1.30;;;16.00;99.90;;;;;;4970368;28;20299;-65
2023/08/09 08:08:07;;;;;;;4.90;1.70;;;16.10;99.90;;;;;;4969658;28;20207;-66
2023/08/09 08:10:34;;;;;;;3.90;1.43;;;16.10;99.90;;;;;;4969579;28;20560;-65
2023/08/09 08:13:01;;;;;;;1.53;1.30;;;16.20;99.90;;;;;;4969489;28;20723;-65
2023/08/09 08:15:28;;;;;;;2.17;1.50;;;16.20;99.90;;;;;;4969175;28;20211;-65
2023/08/09 08:17:56;;;;;;;3.27;1.27;;;16.20;99.90;;;;;;4954705;28;20306;-65
2023/08/09 08:20:24;;;;;;;4.60;1.20;;;16.30;99.90;;;;;;4950016;28;20279;-65
2023/08/09 08:22:52;;;;;;;2.33;1.20;;;16.40;99.90;;;;;;4949450;28;20769;-65
2023/08/09 08:25:20;;;;;;;3.37;1.40;;;16.40;99.90;;;;;;4967307;28;20230;-65
2023/08/09 08:27:47;;;;;;;6.57;1.50;;;16.50;99.90;;;;;;4969495;28;20218;-65
2023/08/09 08:30:16;;;;;;;3.67;1.27;;;16.70;99.90;;;;;;4952941;28;20252;-66
2023/08/09 08:32:44;;;;;;;3.67;1.23;;;16.80;99.90;;;;;;4969047;28;20611;-65
2023/08/09 08:35:13;;;;;;;5.20;1.50;;;16.90;99.90;;;;;;4969366;28;20298;-65
2023/08/09 08:37:40;;;;;;;5.20;1.27;;;17.00;99.90;;;;;;4969348;28;20642;-65
2023/08/09 08:40:14;;;;;;;3.50;1.57;;;17.00;99.90;;;;;;4969794;28;20962;-65
2023/08/09 08:42:42;;;;;;;3.50;1.20;;;17.10;99.90;;;;;;4969454;28;20294;-65
2023/08/09 08:45:11;;;;;;;2.47;1.40;;;17.20;99.90;;;;;;4969274;28;20606;-65
2023/08/09 08:47:40;;;;;;;4.57;1.03;;;17.30;99.90;;;;;;4969231;28;20281;-65
2023/08/09 08:50:08;;;;;;;2.40;1.23;;;17.20;99.90;;;;;;4968897;28;20219;-66
2023/08/09 08:52:39;;;;;;;2.87;1.20;;;17.20;99.90;;;;;;4967940;28;20242;-65
2023/08/09 08:55:08;;;;;;;1.47;1.10;;;17.30;99.90;;;;;;4969322;28;20289;-65
2023/08/09 08:57:36;;;;;;;5.33;1.27;;;17.30;99.90;;;;;;4968835;28;20637;-65
2023/08/09 09:00:08;;;;;;;3.10;1.13;;;17.30;99.90;;;;;;4969034;28;20244;-65
2023/08/09 09:02:35;;;;;;;5.57;1.10;;;17.20;99.90;;;;;;4968687;28;20227;-65
2023/08/09 09:05:02;;;;;;;3.80;1.20;;;17.10;99.90;;;;;;4969399;28;20241;-65
2023/08/09 09:07:30;;;;;;;2.70;1.27;;;17.20;99.90;;;;;;4968504;28;20305;-65
2023/08/09 09:10:04;;;;;;;2.87;1.20;;;17.30;99.90;;;;;;4968672;28;20772;-65
2023/08/09 09:12:34;;;;;;;4.17;1.20;;;17.40;99.90;;;;;;4968593;28;20220;-65
2023/08/09 09:15:03;;;;;;;2.13;0.90;;;17.30;99.90;;;;;;4968812;28;20203;-66
2023/08/09 09:17:30;;;;;;;2.53;1.00;;;17.30;99.90;;;;;;4968729;28;20500;-65
2023/08/09 09:19:57;;;;;;;2.80;1.20;;;17.30;99.90;;;;;;4968674;28;20312;-66
2023/08/09 09:22:28;;;;;;;1.70;1.17;;;17.40;99.90;;;;;;4968545;28;20306;-65
2023/08/09 09:24:58;;;;;;;1.97;0.93;;;17.50;99.90;;;;;;4968239;28;20245;-65
2023/08/09 09:27:31;;;;;;;2.17;1.10;;;17.60;99.90;;;;;;4968472;28;20199;-65
2023/08/09 09:30:04;;;;;;;1.30;0.97;;;17.80;99.90;;;;;;4968675;28;20214;-66
2023/08/09 09:32:31;;;;;;;2.23;1.00;;;17.90;99.90;;;;;;4967660;28;20344;-65
2023/08/09 09:34:58;;;;;;;3.00;1.20;;;17.90;99.90;;;;;;4967727;28;20207;-65
2023/08/09 09:37:27;;;;;;;3.80;1.07;;;17.90;99.90;;;;;;4967766;28;20253;-66
2023/08/09 09:39:55;;;;;;;2.27;1.10;;;17.90;99.90;;;;;;4967675;28;20761;-66
2023/08/09 09:42:32;;;;;;;1.87;1.10;;;17.90;99.90;;;;;;4967828;28;20230;-66
2023/08/09 09:45:04;;;;;;;2.13;1.10;;;17.90;99.90;;;;;;4968211;28;20199;-65
2023/08/09 09:47:34;;;;;;;2.27;1.20;;;18.00;99.90;;;;;;4967372;28;20583;-66
2023/08/09 09:50:01;;;;;;;3.07;1.33;;;18.10;99.90;;;;;;4967989;28;20232;-66
2023/08/09 09:52:30;;;;;;;1.53;1.10;;;18.30;99.90;;;;;;4967678;28;20207;-66
2023/08/09 09:54:57;;;;;;;4.00;1.10;;;18.40;99.90;;;;;;4967688;28;20211;-66
2023/08/09 09:57:24;;;;;;;2.43;1.07;;;18.50;99.90;;;;;;4967464;28;20218;-65
2023/08/09 09:59:58;;;;;;;5.10;1.40;;;18.70;99.90;;;;;;4967341;28;20238;-65
2023/08/09 10:02:30;;;;;;;1.50;1.00;;;18.80;99.90;;;;;;4948145;28;20206;-66
2023/08/09 10:04:59;;;;;;;4.13;1.20;;;19.00;99.90;;;;;;4947734;28;20204;-65
2023/08/09 10:07:30;;;;;;;3.43;1.20;;;19.00;99.90;;;;;;4947952;28;20219;-66
2023/08/09 10:10:01;;;;;;;1.43;1.27;;;19.10;99.90;;;;;;4958724;28;20321;-65
2023/08/09 10:12:28;;;;;;;3.07;1.20;;;19.20;99.90;;;;;;4967111;28;20302;-65
2023/08/09 10:14:57;;;;;;;1.20;0.83;;;19.00;99.90;;;;;;4967143;28;20634;-66
2023/08/09 10:17:26;;;;;;;3.63;0.83;;;18.90;99.90;;;;;;4966919;28;20217;-66
2023/08/09 10:19:54;;;;;;;1.67;1.00;;;19.00;99.90;;;;;;4967132;28;20246;-65
2023/08/09 10:22:21;;;;;;;2.27;1.00;;;18.90;99.90;;;;;;4966732;28;20642;-66
2023/08/09 10:24:51;;;;;;;3.30;1.00;;;18.90;99.90;;;;;;4966962;28;20270;-66
2023/08/09 10:27:52;;;;;;;2.83;0.97;;;19.10;99.90;;;;;;4967139;28;20207;-66
2023/08/09 10:30:25;;;;;;;3.20;1.00;;;19.00;99.90;;;;;;4963429;28;20776;-65
2023/08/09 10:32:54;;;;;;;3.43;1.17;;;19.00;99.90;;;;;;4947490;28;20624;-66
2023/08/09 10:35:42;;;;;;;2.90;1.20;;;18.90;99.90;;;;;;4956268;28;20321;-65
2023/08/09 10:38:09;;;;;;;5.23;1.23;;;18.60;99.90;;;;;;4966878;28;20195;-66
2023/08/09 10:40:36;;;;;;;3.17;1.17;;;18.30;99.90;;;;;;4966761;28;20241;-65
2023/08/09 10:43:04;;;;;;;3.70;1.43;;;18.20;99.90;;;;;;4966730;28;21106;-65
2023/08/09 10:45:33;;;;;;;4.27;1.37;;;18.10;99.90;;;;;;4967228;28;20217;-66
2023/08/09 10:48:20;;;;;;;3.37;1.30;;;18.10;99.90;;;;;;4966668;28;20294;-66
2023/08/09 10:50:47;;;;;;;2.73;1.10;;;18.10;99.90;;;;;;4966999;28;20265;-66
2023/08/09 10:53:21;;;;;;;2.83;1.10;;;18.10;99.90;;;;;;4966664;28;20309;-66
2023/08/09 10:55:49;;;;;;;1.53;0.83;;;17.80;99.90;;;;;;4967319;28;20199;-65
2023/08/09 10:58:16;;;;;;;4.37;1.07;;;17.80;99.90;;;;;;4966951;28;20214;-66
2023/08/09 11:00:44;;;;;;;0.97;0.77;;;17.90;99.90;;;;;;4966620;28;20241;-66
2023/08/09 11:03:12;;;;;;;3.30;0.90;;;18.10;99.90;;;;;;4966665;28;20238;-66
2023/08/09 11:05:39;;;;;;;1.50;1.37;;;18.20;99.90;;;;;;4966251;28;20598;-66
2023/08/09 11:08:12;;;;;;;1.20;1.10;;;18.30;99.90;;;;;;4966036;28;20302;-66
2023/08/09 11:10:41;;;;;;;1.70;0.87;;;18.70;99.90;;;;;;4964127;28;20211;-66
2023/08/09 11:13:10;;;;;;;2.63;1.03;;;19.20;99.90;;;;;;4966225;28;20223;-66
2023/08/09 11:15:37;;;;;;;1.87;1.00;;;19.50;99.90;;;;;;4965892;28;20744;-66
2023/08/09 11:18:07;;;;;;;1.70;1.13;;;19.60;99.90;;;;;;4965874;28;20729;-66
2023/08/09 11:20:34;;;;;;;2.60;1.30;;;19.60;99.90;;;;;;4966237;28;20235;-66
2023/08/09 11:23:03;;;;;;;2.23;1.20;;;19.50;99.90;;;;;;4966269;28;20234;-66
2023/08/09 11:25:33;;;;;;;3.87;1.07;;;19.10;99.90;;;;;;4965960;28;20745;-66
2023/08/09 11:28:02;;;;;;;4.27;1.33;;;19.00;99.90;;;;;;4966065;28;20217;-66
2023/08/09 11:30:34;;;;;;;3.80;1.23;;;19.00;99.90;;;;;;4965969;28;20666;-66
2023/08/09 11:33:03;;;;;;;2.00;1.10;;;19.20;99.90;;;;;;4965841;28;20235;-65
2023/08/09 11:35:39;;;;;;;2.87;1.10;;;19.10;99.90;;;;;;4965870;28;20206;-66
2023/08/09 11:38:09;;;;;;;3.53;1.30;;;19.10;99.90;;;;;;4966250;28;20202;-66
2023/08/09 11:40:41;;;;;;;3.43;1.40;;;19.30;99.90;;;;;;4966279;28;20608;-66
2023/08/09 11:43:12;;;;;;;2.67;1.10;;;19.60;99.90;;;;;;4966486;28;20305;-66
2023/08/09 11:45:50;;;;;;;1.33;0.80;;;19.70;99.90;;;;;;4966465;28;20206;-66
2023/08/09 11:48:25;;;;;;;2.73;1.30;;;19.90;99.90;;;;;;4966313;28;20198;-66
2023/08/09 11:51:04;;;;;;;3.03;1.17;;;20.30;99.90;;;;;;4966335;28;20218;-66
2023/08/09 11:53:33;;;;;;;1.80;0.80;;;20.50;99.90;;;;;;4965659;28;20732;-66
2023/08/09 11:56:00;;;;;;;1.57;1.20;;;20.70;99.90;;;;;;4965907;28;20234;-66
2023/08/09 11:58:27;;;;;;;2.63;1.37;;;20.80;99.90;;;;;;4966330;28;20496;-66
2023/08/09 12:00:54;;;;;;;2.87;1.03;;;20.80;99.90;;;;;;4966289;28;20238;-66
2023/08/09 12:03:21;;;;;;;2.87;1.30;;;20.90;99.90;;;;;;4965542;28;20666;-66
2023/08/09 12:05:52;;;;;;;2.77;0.97;;;21.10;99.90;;;;;;4966229;28;20304;-66
2023/08/09 12:08:33;;;;;;;3.93;1.30;;;21.20;99.90;;;;;;4964870;28;20195;-66
2023/08/09 12:11:00;;;;;;;1.03;0.87;;;21.10;99.90;;;;;;4957000;28;20641;-66
2023/08/09 12:13:27;;;;;;;3.77;1.07;;;20.90;99.90;;;;;;4965631;28;20215;-66
2023/08/09 12:15:56;;;;;;;2.13;1.13;;;21.00;99.90;;;;;;4966132;28;20294;-66
2023/08/09 12:18:23;;;;;;;4.13;1.10;;;20.70;99.90;;;;;;4965530;28;20265;-66
2023/08/09 12:20:50;;;;;;;3.27;0.93;;;20.80;99.90;;;;;;4965674;28;20231;-66
2023/08/09 12:23:17;;;;;;;3.43;1.23;;;20.80;99.90;;;;;;4965591;28;20238;-66
2023/08/09 12:25:45;;;;;;;2.93;1.30;;;21.00;99.90;;;;;;4965662;28;20318;-66
2023/08/09 12:28:12;;;;;;;2.33;1.07;;;20.90;99.90;;;;;;4969052;28;20207;-66
2023/08/09 12:30:38;;;;;;;1.77;0.80;;;20.60;99.90;;;;;;4969049;28;20217;-66
2023/08/09 12:33:08;;;;;;;1.70;1.00;;;20.50;99.90;;;;;;4968656;28;20679;-65
2023/08/09 12:35:35;;;;;;;2.30;1.20;;;20.30;99.90;;;;;;4968932;28;20458;-66
2023/08/09 12:38:02;;;;;;;1.30;1.07;;;20.20;99.90;;;;;;4969068;28;20206;-66
2023/08/09 12:40:29;;;;;;;1.90;1.00;;;20.40;99.90;;;;;;4964512;28;20334;-66
2023/08/09 12:42:57;;;;;;;1.20;1.10;;;20.80;99.90;;;;;;4969074;28;20281;-66
2023/08/09 12:45:24;;;;;;;3.53;1.10;;;21.10;99.90;;;;;;4969147;28;20217;-66
2023/08/09 12:47:51;;;;;;;2.83;1.40;;;21.00;99.90;;;;;;4969062;28;20632;-66
2023/08/09 12:50:19;;;;;;;5.23;1.10;;;21.00;99.90;;;;;;4968992;28;20298;-66
2023/08/09 12:52:46;;;;;;;2.60;0.93;;;20.50;99.90;;;;;;4968709;28;20211;-66